Time;durP1;ratioP1;P1;durP2;ratioP2;P2;SDS_P1;SDS_P2;PMS_P1;PMS_P2;Temp;Humidity;BMP_temperature;BMP_pressure;BME280_temperature;BME280_humidity;BME280_pressure;Samples;Min_cycle;Max_cycle;Signal;HPM_P1;HPM_P2
2023/08/02 00:00:46;;;;;;;10.30;2.50;;;;;;;;;;5054813;28;19905;-69
2023/08/02 00:03:13;;;;;;;9.25;2.55;;;;;;;;;;5063765;28;20045;-69
2023/08/02 00:05:38;;;;;;;7.80;2.30;;;;;;;;;;5059751;28;20017;-69
2023/08/02 00:08:03;;;;;;;10.32;2.80;;;;;;;;;;5059262;28;20032;-69
2023/08/02 00:10:29;;;;;;;5.93;2.50;;;;;;;;;;5059409;28;20064;-69
2023/08/02 00:12:54;;;;;;;12.52;3.00;;;;;;;;;;5059982;28;20389;-70
2023/08/02 00:15:19;;;;;;;10.68;2.97;;;;;;;;;;5055564;28;20477;-70
2023/08/02 00:17:44;;;;;;;11.27;2.85;;;;;;;;;;5059871;28;20020;-70
2023/08/02 00:20:10;;;;;;;10.60;3.13;;;;;;;;;;5053075;28;20083;-69
2023/08/02 00:22:35;;;;;;;6.80;2.50;;;;;;;;;;5062891;28;20028;-70
2023/08/02 00:25:01;;;;;;;10.52;2.60;;;;;;;;;;5060445;28;20106;-69
2023/08/02 00:27:26;;;;;;;7.75;2.40;;;;;;;;;;5059407;28;20075;-69
2023/08/02 00:29:51;;;;;;;6.20;2.22;;;;;;;;;;5057790;28;20035;-70
2023/08/02 00:32:18;;;;;;;11.95;2.97;;;;;;;;;;5057987;28;20025;-70
2023/08/02 00:34:43;;;;;;;8.35;2.55;;;;;;;;;;5056428;28;20377;-70
2023/08/02 00:37:08;;;;;;;9.55;2.45;;;;;;;;;;5061379;28;20020;-69
2023/08/02 00:39:33;;;;;;;12.88;3.13;;;;;;;;;;5064163;28;20020;-69
2023/08/02 00:41:58;;;;;;;9.57;2.70;;;;;;;;;;5061195;28;20151;-69
2023/08/02 00:44:24;;;;;;;12.88;2.80;;;;;;;;;;5058784;28;20100;-70
2023/08/02 00:46:49;;;;;;;10.75;2.45;;;;;;;;;;5055197;28;20021;-68
2023/08/02 00:49:14;;;;;;;8.27;2.38;;;;;;;;;;5063346;28;20021;-70
2023/08/02 00:51:39;;;;;;;10.80;3.17;;;;;;;;;;5055418;28;20075;-69
2023/08/02 00:54:05;;;;;;;12.20;3.13;;;;;;;;;;5057210;28;20017;-69
2023/08/02 00:56:31;;;;;;;10.88;2.90;;;;;;;;;;5060411;28;20551;-69
2023/08/02 00:58:56;;;;;;;13.75;3.28;;;;;;;;;;5057637;28;20720;-69
2023/08/02 01:04:24;;;;;;;10.45;2.67;;;;;;;;;;5092913;22;20055;-66
2023/08/02 01:07:07;;;;;;;12.75;3.22;;;;;;;;;;5082217;28;20020;-67
2023/08/02 01:09:38;;;;;;;14.68;3.40;;;;;;;;;;5083309;28;20027;-67
2023/08/02 01:12:07;;;;;;;8.13;2.42;;;;;;;;;;5082979;28;20016;-67
2023/08/02 01:14:33;;;;;;;11.73;2.75;;;;;;;;;;5093651;28;20367;-67
2023/08/02 01:16:59;;;;;;;8.85;2.80;;;;;;;;;;5094029;28;20018;-67
2023/08/02 01:19:24;;;;;;;9.80;2.75;;;;;;;;;;5094148;28;20382;-67
2023/08/02 01:21:49;;;;;;;13.50;3.22;;;;;;;;;;5089542;28;20390;-65
2023/08/02 01:24:15;;;;;;;12.75;2.58;;;;;;;;;;5093849;28;20020;-66
2023/08/02 01:26:42;;;;;;;8.05;2.60;;;;;;;;;;5089690;28;20028;-66
2023/08/02 01:29:09;;;;;;;10.68;2.65;;;;;;;;;;5086611;28;20052;-66
2023/08/02 01:31:35;;;;;;;13.02;2.90;;;;;;;;;;5074413;28;20016;-67
2023/08/02 01:34:01;;;;;;;10.95;2.72;;;;;;;;;;5077307;28;20063;-67
2023/08/02 01:36:26;;;;;;;10.60;3.55;;;;;;;;;;5066575;28;20472;-66
2023/08/02 01:38:52;;;;;;;12.23;3.00;;;;;;;;;;5074329;28;20388;-66
2023/08/02 01:41:17;;;;;;;11.25;2.60;;;;;;;;;;5081257;28;20089;-66
2023/08/02 01:43:42;;;;;;;12.65;2.90;;;;;;;;;;5085590;28;20031;-66
2023/08/02 01:46:07;;;;;;;10.80;2.70;;;;;;;;;;5083820;28;20032;-67
2023/08/02 01:48:33;;;;;;;7.97;2.53;;;;;;;;;;5074273;28;20016;-67
2023/08/02 01:50:58;;;;;;;9.52;3.08;;;;;;;;;;5074440;28;20024;-66
2023/08/02 01:53:23;;;;;;;11.15;2.60;;;;;;;;;;5074375;28;20027;-67
2023/08/02 01:55:48;;;;;;;9.88;2.60;;;;;;;;;;5074408;28;20021;-67
2023/08/02 01:58:14;;;;;;;9.95;2.60;;;;;;;;;;5074336;28;20012;-67
2023/08/02 02:00:39;;;;;;;11.35;3.10;;;;;;;;;;5078511;28;20107;-66
2023/08/02 02:03:04;;;;;;;10.63;2.75;;;;;;;;;;5077746;28;20028;-67
2023/08/02 02:05:29;;;;;;;8.27;2.50;;;;;;;;;;5056216;28;20045;-67
2023/08/02 02:07:55;;;;;;;9.88;2.58;;;;;;;;;;5065120;28;20063;-67
2023/08/02 02:10:20;;;;;;;9.45;2.78;;;;;;;;;;5054144;28;20021;-67
2023/08/02 02:12:45;;;;;;;9.98;2.90;;;;;;;;;;5062153;28;20009;-67
2023/08/02 02:15:10;;;;;;;9.52;2.78;;;;;;;;;;5060691;28;20044;-66
2023/08/02 02:17:36;;;;;;;14.02;2.85;;;;;;;;;;5072224;28;20043;-67
2023/08/02 02:20:01;;;;;;;9.88;2.80;;;;;;;;;;5068894;28;20099;-67
2023/08/02 02:22:26;;;;;;;9.05;2.75;;;;;;;;;;5072701;28;20029;-66
2023/08/02 02:24:52;;;;;;;10.85;2.60;;;;;;;;;;5072335;28;20095;-66
2023/08/02 02:27:17;;;;;;;9.80;2.70;;;;;;;;;;5068449;28;20058;-67
2023/08/02 02:29:42;;;;;;;9.88;3.10;;;;;;;;;;5056592;28;20033;-67
2023/08/02 02:32:07;;;;;;;13.13;3.03;;;;;;;;;;5053694;28;20017;-67
2023/08/02 02:34:33;;;;;;;11.48;3.00;;;;;;;;;;5053382;28;20484;-67
2023/08/02 02:36:58;;;;;;;11.60;3.20;;;;;;;;;;5061418;28;20017;-66
2023/08/02 02:39:23;;;;;;;11.38;3.22;;;;;;;;;;5072028;28;20381;-67
2023/08/02 02:41:49;;;;;;;11.85;4.05;;;;;;;;;;5071713;28;20384;-67
2023/08/02 02:44:14;;;;;;;13.52;3.30;;;;;;;;;;5071981;28;20024;-67
2023/08/02 02:46:39;;;;;;;11.82;3.83;;;;;;;;;;5071982;28;20025;-66
2023/08/02 02:49:04;;;;;;;9.65;3.60;;;;;;;;;;5066855;28;20025;-66
2023/08/02 02:51:30;;;;;;;11.07;3.50;;;;;;;;;;5059202;28;20028;-66
2023/08/02 02:53:55;;;;;;;12.85;3.40;;;;;;;;;;5060053;28;20099;-67
2023/08/02 02:56:20;;;;;;;9.90;3.50;;;;;;;;;;5058624;28;20056;-66
2023/08/02 02:58:45;;;;;;;11.40;3.30;;;;;;;;;;5059101;28;20035;-67
2023/08/02 03:01:11;;;;;;;10.43;3.20;;;;;;;;;;5059634;28;20025;-67
2023/08/02 03:03:36;;;;;;;11.93;3.70;;;;;;;;;;5059988;28;20040;-67
2023/08/02 03:06:02;;;;;;;11.73;3.42;;;;;;;;;;5072403;28;20024;-67
2023/08/02 03:08:27;;;;;;;11.73;3.33;;;;;;;;;;5072284;28;20387;-67
2023/08/02 03:10:52;;;;;;;11.68;3.65;;;;;;;;;;5071226;28;20028;-67
2023/08/02 03:13:18;;;;;;;14.68;4.25;;;;;;;;;;5072213;28;20028;-66
2023/08/02 03:15:43;;;;;;;11.65;3.60;;;;;;;;;;5072152;28;20020;-67
2023/08/02 03:18:08;;;;;;;9.63;3.42;;;;;;;;;;5072315;28;20052;-66
2023/08/02 03:20:33;;;;;;;14.38;4.15;;;;;;;;;;5070776;28;20025;-67
2023/08/02 03:22:59;;;;;;;11.88;3.22;;;;;;;;;;5072369;28;20071;-65
2023/08/02 03:25:24;;;;;;;16.45;3.35;;;;;;;;;;5070868;28;20024;-66
2023/08/02 03:27:49;;;;;;;13.63;3.20;;;;;;;;;;5069972;28;20028;-66
2023/08/02 03:30:14;;;;;;;10.68;2.97;;;;;;;;;;5071514;28;20154;-66
2023/08/02 03:32:40;;;;;;;9.43;3.00;;;;;;;;;;5070405;28;20054;-66
2023/08/02 03:35:05;;;;;;;11.52;3.20;;;;;;;;;;5072195;28;20033;-67
2023/08/02 03:37:30;;;;;;;11.35;3.40;;;;;;;;;;5071944;28;20039;-67
2023/08/02 03:39:55;;;;;;;13.10;3.17;;;;;;;;;;5067965;28;20057;-66
2023/08/02 03:42:21;;;;;;;9.90;3.17;;;;;;;;;;5071743;28;20032;-67
2023/08/02 03:44:46;;;;;;;9.60;3.22;;;;;;;;;;5070863;28;20028;-67
2023/08/02 03:47:11;;;;;;;11.65;3.33;;;;;;;;;;5071799;28;20028;-67
2023/08/02 03:49:37;;;;;;;14.60;3.50;;;;;;;;;;5071549;28;20031;-67
2023/08/02 03:52:02;;;;;;;11.43;3.75;;;;;;;;;;5071690;28;20044;-66
2023/08/02 03:54:27;;;;;;;9.40;3.55;;;;;;;;;;5071935;28;20024;-66
2023/08/02 03:56:53;;;;;;;9.52;3.22;;;;;;;;;;5071870;28;20025;-67
2023/08/02 03:59:18;;;;;;;15.23;3.47;;;;;;;;;;5070706;28;20506;-66
2023/08/02 04:01:43;;;;;;;13.85;3.72;;;;;;;;;;5069210;28;20491;-66
2023/08/02 04:04:09;;;;;;;12.10;3.92;;;;;;;;;;5071099;28;20109;-66
2023/08/02 04:06:34;;;;;;;15.13;3.90;;;;;;;;;;5069938;28;20025;-66
2023/08/02 04:09:00;;;;;;;13.40;3.75;;;;;;;;;;5070300;28;20559;-66
2023/08/02 04:11:25;;;;;;;13.95;3.90;;;;;;;;;;5073627;28;20063;-66
2023/08/02 04:13:50;;;;;;;14.18;3.72;;;;;;;;;;5075348;28;20047;-66
2023/08/02 04:16:15;;;;;;;12.20;3.72;;;;;;;;;;5074297;28;20050;-66
2023/08/02 04:18:41;;;;;;;16.40;3.95;;;;;;;;;;5073370;28;20020;-66
2023/08/02 04:21:06;;;;;;;10.18;3.75;;;;;;;;;;5070587;28;20419;-67
2023/08/02 04:23:31;;;;;;;11.95;3.60;;;;;;;;;;5068505;28;20138;-66
2023/08/02 04:25:57;;;;;;;14.10;3.72;;;;;;;;;;5075284;28;20020;-66
2023/08/02 04:28:22;;;;;;;12.70;4.00;;;;;;;;;;5073669;28;20388;-66
2023/08/02 04:30:50;;;;;;;14.25;4.15;;;;;;;;;;5065166;28;20033;-66
2023/08/02 04:33:16;;;;;;;11.35;4.00;;;;;;;;;;5075802;28;20045;-66
2023/08/02 04:35:41;;;;;;;13.23;4.00;;;;;;;;;;5079961;28;20491;-66
2023/08/02 04:38:06;;;;;;;11.57;3.95;;;;;;;;;;5075954;28;20409;-66
2023/08/02 04:40:31;;;;;;;15.18;4.28;;;;;;;;;;5068853;28;20531;-66
2023/08/02 04:42:57;;;;;;;15.43;4.47;;;;;;;;;;5075892;28;20028;-66
2023/08/02 04:45:22;;;;;;;14.95;4.47;;;;;;;;;;5070910;28;20032;-66
2023/08/02 04:47:47;;;;;;;13.98;4.90;;;;;;;;;;5074520;28;20029;-66
2023/08/02 04:50:12;;;;;;;16.27;5.20;;;;;;;;;;5068912;28;20028;-67
2023/08/02 04:52:37;;;;;;;13.90;4.82;;;;;;;;;;5068725;28;20059;-67
2023/08/02 04:55:05;;;;;;;17.83;5.30;;;;;;;;;;5074591;28;20025;-67
2023/08/02 04:57:30;;;;;;;12.50;4.82;;;;;;;;;;5072177;28;20024;-67
2023/08/02 04:59:55;;;;;;;17.23;5.10;;;;;;;;;;5055144;28;20138;-67
2023/08/02 05:02:21;;;;;;;14.02;4.95;;;;;;;;;;5070600;28;20086;-67
2023/08/02 05:04:51;;;;;;;13.63;4.82;;;;;;;;;;5077989;28;20056;-67
2023/08/02 05:07:16;;;;;;;10.88;4.95;;;;;;;;;;5073770;28;20271;-67
2023/08/02 05:09:42;;;;;;;15.32;4.80;;;;;;;;;;5073958;28;20108;-66
2023/08/02 05:12:07;;;;;;;16.45;5.53;;;;;;;;;;5061198;28;20112;-66
2023/08/02 05:14:32;;;;;;;12.50;4.70;;;;;;;;;;5066610;28;20100;-66
2023/08/02 05:16:58;;;;;;;12.15;4.63;;;;;;;;;;5069853;28;20021;-67
2023/08/02 05:19:23;;;;;;;14.10;4.60;;;;;;;;;;5074739;28;20064;-67
2023/08/02 05:21:49;;;;;;;13.77;4.75;;;;;;;;;;5073392;28;20029;-66
2023/08/02 05:24:14;;;;;;;10.27;4.10;;;;;;;;;;5071324;28;20028;-67
2023/08/02 05:26:40;;;;;;;13.27;4.75;;;;;;;;;;5074455;28;20020;-66
2023/08/02 05:29:05;;;;;;;10.73;4.15;;;;;;;;;;5071566;28;20028;-66
2023/08/02 05:31:30;;;;;;;14.05;4.40;;;;;;;;;;5075015;28;20380;-66
2023/08/02 05:33:55;;;;;;;17.08;5.40;;;;;;;;;;5066839;28;20024;-65
2023/08/02 05:36:21;;;;;;;16.17;4.93;;;;;;;;;;5074770;28;20016;-65
2023/08/02 05:38:46;;;;;;;12.20;4.15;;;;;;;;;;5068937;28;20025;-65
2023/08/02 05:41:11;;;;;;;10.25;4.18;;;;;;;;;;5075324;28;20103;-65
2023/08/02 05:43:41;;;;;;;11.68;4.35;;;;;;;;;;5074473;28;20086;-64
2023/08/02 05:46:06;;;;;;;12.43;3.40;;;;;;;;;;5075187;28;20028;-65
2023/08/02 05:48:32;;;;;;;8.85;3.17;;;;;;;;;;5075052;28;20035;-61
2023/08/02 05:50:57;;;;;;;12.10;3.05;;;;;;;;;;5074938;28;20021;-61
2023/08/02 05:53:22;;;;;;;9.18;3.10;;;;;;;;;;5075032;28;20390;-61
2023/08/02 05:55:47;;;;;;;7.88;2.75;;;;;;;;;;5074721;28;20465;-61
2023/08/02 05:58:12;;;;;;;9.10;3.08;;;;;;;;;;5071815;28;20043;-62
2023/08/02 06:00:38;;;;;;;9.10;2.90;;;;;;;;;;5073689;28;20051;-63
2023/08/02 06:03:03;;;;;;;12.23;3.42;;;;;;;;;;5073807;28;20404;-62
2023/08/02 06:05:28;;;;;;;11.32;3.53;;;;;;;;;;5074246;28;20056;-62
2023/08/02 06:07:54;;;;;;;9.57;3.40;;;;;;;;;;5074750;28;20086;-62
2023/08/02 06:10:19;;;;;;;7.85;3.00;;;;;;;;;;5074560;28;20028;-63
2023/08/02 06:12:44;;;;;;;10.68;3.60;;;;;;;;;;5074366;28;20066;-62
2023/08/02 06:15:09;;;;;;;9.88;3.70;;;;;;;;;;5079005;28;20064;-63
2023/08/02 06:17:35;;;;;;;12.55;3.80;;;;;;;;;;5088310;28;20021;-63
2023/08/02 06:20:00;;;;;;;8.38;3.33;;;;;;;;;;5074132;28;20032;-62
2023/08/02 06:22:26;;;;;;;11.60;3.70;;;;;;;;;;5074067;28;20074;-62
2023/08/02 06:24:51;;;;;;;9.38;3.50;;;;;;;;;;5074302;28;20024;-63
2023/08/02 06:27:16;;;;;;;9.20;3.80;;;;;;;;;;5071130;28;20021;-63
2023/08/02 06:29:41;;;;;;;9.18;3.22;;;;;;;;;;5071530;28;20024;-63
2023/08/02 06:32:07;;;;;;;10.48;3.97;;;;;;;;;;5069590;28;20013;-64
2023/08/02 06:34:32;;;;;;;9.02;3.50;;;;;;;;;;5070002;28;20523;-63
2023/08/02 06:36:57;;;;;;;10.50;3.58;;;;;;;;;;5071383;28;20052;-63
2023/08/02 06:39:22;;;;;;;8.60;3.33;;;;;;;;;;5065180;28;20025;-63
2023/08/02 06:41:47;;;;;;;7.93;3.33;;;;;;;;;;5068332;28;20050;-64
2023/08/02 06:44:13;;;;;;;10.77;3.72;;;;;;;;;;5059895;28;20107;-64
2023/08/02 06:46:39;;;;;;;8.73;3.38;;;;;;;;;;5072995;28;20078;-63
2023/08/02 06:49:05;;;;;;;9.60;3.75;;;;;;;;;;5063798;28;20020;-63
2023/08/02 06:51:30;;;;;;;11.20;3.88;;;;;;;;;;5072740;28;20030;-63
2023/08/02 06:53:57;;;;;;;10.57;3.67;;;;;;;;;;5065839;28;20091;-63
2023/08/02 06:56:23;;;;;;;11.10;4.03;;;;;;;;;;5067126;28;20028;-65
2023/08/02 06:58:48;;;;;;;9.45;3.60;;;;;;;;;;5068064;28;20096;-67
2023/08/02 07:01:14;;;;;;;8.68;3.35;;;;;;;;;;5073720;28;20024;-67
2023/08/02 07:03:40;;;;;;;9.73;3.30;;;;;;;;;;5073022;28;20044;-67
2023/08/02 07:06:12;;;;;;;11.40;3.28;;;;;;;;;;5073420;28;20154;-68
2023/08/02 07:08:38;;;;;;;9.57;3.30;;;;;;;;;;5072591;28;20020;-67
2023/08/02 07:11:04;;;;;;;10.50;3.35;;;;;;;;;;5073354;28;20034;-66
2023/08/02 07:13:29;;;;;;;7.43;3.25;;;;;;;;;;5073219;28;20024;-67
2023/08/02 07:15:54;;;;;;;8.63;3.47;;;;;;;;;;5057252;28;20017;-67
2023/08/02 07:18:20;;;;;;;7.68;3.22;;;;;;;;;;5053489;28;20017;-67
2023/08/02 07:20:45;;;;;;;8.38;3.15;;;;;;;;;;5062379;28;20375;-67
2023/08/02 07:23:10;;;;;;;7.95;3.42;;;;;;;;;;5073525;28;20540;-67
2023/08/02 07:25:35;;;;;;;10.60;4.07;;;;;;;;;;5072396;28;20487;-67
2023/08/02 07:28:01;;;;;;;12.18;3.40;;;;;;;;;;5072295;28;20495;-67
2023/08/02 07:30:26;;;;;;;11.13;3.53;;;;;;;;;;5039902;28;20033;-67
2023/08/02 07:32:51;;;;;;;10.77;3.60;;;;;;;;;;5053357;28;20025;-67
2023/08/02 07:35:16;;;;;;;10.50;3.95;;;;;;;;;;5053282;28;20062;-67
2023/08/02 07:37:42;;;;;;;8.85;3.50;;;;;;;;;;5053100;28;20469;-67
2023/08/02 07:40:07;;;;;;;7.68;3.47;;;;;;;;;;5053075;28;20025;-67
2023/08/02 07:42:32;;;;;;;9.00;3.35;;;;;;;;;;5057481;28;20032;-67
2023/08/02 07:45:16;;;;;;;8.38;3.08;;;;;;;;;;5072450;28;20024;-67
2023/08/02 07:47:41;;;;;;;10.50;2.95;;;;;;;;;;5072905;28;20032;-67
2023/08/02 07:50:07;;;;;;;7.63;3.15;;;;;;;;;;5073103;28;20111;-67
2023/08/02 07:52:34;;;;;;;8.20;3.15;;;;;;;;;;5077211;28;20475;-66
2023/08/02 07:54:59;;;;;;;11.27;3.35;;;;;;;;;;5092887;28;20028;-67
2023/08/02 07:57:30;;;;;;;8.50;2.70;;;;;;;;;;5077962;28;20115;-67
2023/08/02 07:59:56;;;;;;;11.18;3.42;;;;;;;;;;5067875;28;20020;-67
2023/08/02 08:02:21;;;;;;;7.38;2.70;;;;;;;;;;5072743;28;20016;-68
2023/08/02 08:04:47;;;;;;;8.73;2.92;;;;;;;;;;5072477;28;20102;-68
2023/08/02 08:07:12;;;;;;;11.07;3.10;;;;;;;;;;5073009;28;20373;-63
2023/08/02 08:09:37;;;;;;;6.07;2.65;;;;;;;;;;5072948;28;20503;-64
2023/08/02 08:12:03;;;;;;;9.85;3.00;;;;;;;;;;5072666;28;20021;-63
2023/08/02 08:14:29;;;;;;;8.93;2.90;;;;;;;;;;5072653;28;20023;-63
2023/08/02 08:16:56;;;;;;;8.18;2.78;;;;;;;;;;5069469;28;20017;-64
2023/08/02 08:19:21;;;;;;;10.32;2.67;;;;;;;;;;5087778;28;20027;-63
2023/08/02 08:21:47;;;;;;;8.63;2.75;;;;;;;;;;5065723;28;20025;-63
2023/08/02 08:24:12;;;;;;;7.07;2.80;;;;;;;;;;5052893;28;20032;-63
2023/08/02 08:26:37;;;;;;;7.40;2.55;;;;;;;;;;5052510;28;20173;-63
2023/08/02 08:29:04;;;;;;;9.95;3.40;;;;;;;;;;5052801;28;20051;-63
2023/08/02 08:31:29;;;;;;;5.45;2.45;;;;;;;;;;5052451;28;20021;-63
2023/08/02 08:33:54;;;;;;;10.18;3.17;;;;;;;;;;5059983;28;20023;-62
2023/08/02 08:36:21;;;;;;;10.55;2.97;;;;;;;;;;5072793;28;20104;-62
2023/08/02 08:38:46;;;;;;;8.23;2.70;;;;;;;;;;5054602;28;20131;-63
2023/08/02 08:41:13;;;;;;;8.88;2.65;;;;;;;;;;5072351;28;20052;-63
2023/08/02 08:43:38;;;;;;;5.88;2.65;;;;;;;;;;5072300;28;20032;-63
2023/08/02 08:46:03;;;;;;;8.70;3.10;;;;;;;;;;5072286;28;20025;-63
2023/08/02 08:48:30;;;;;;;8.80;3.50;;;;;;;;;;5072692;28;20024;-62
2023/08/02 08:50:56;;;;;;;7.88;3.05;;;;;;;;;;5071756;28;20020;-62
2023/08/02 08:53:31;;;;;;;7.45;2.72;;;;;;;;;;5072445;28;20471;-63
2023/08/02 08:55:56;;;;;;;7.15;3.15;;;;;;;;;;5073124;28;20195;-62
2023/08/02 08:58:22;;;;;;;8.73;3.10;;;;;;;;;;5076088;28;20488;-62
2023/08/02 09:00:47;;;;;;;8.82;3.28;;;;;;;;;;5075998;28;20025;-63
2023/08/02 09:03:13;;;;;;;8.38;3.60;;;;;;;;;;5074784;28;20024;-65
2023/08/02 09:05:39;;;;;;;8.43;2.92;;;;;;;;;;5077580;28;20024;-64
2023/08/02 09:08:04;;;;;;;7.13;3.40;;;;;;;;;;5075621;28;20093;-63
2023/08/02 09:10:31;;;;;;;11.45;3.80;;;;;;;;;;5082699;28;20020;-63
2023/08/02 09:12:56;;;;;;;9.13;3.53;;;;;;;;;;5089299;28;20047;-63
2023/08/02 09:15:21;;;;;;;9.32;3.35;;;;;;;;;;5084297;28;20059;-63
2023/08/02 09:17:53;;;;;;;8.68;3.40;;;;;;;;;;5081413;28;20032;-67
2023/08/02 09:20:19;;;;;;;9.70;4.00;;;;;;;;;;5082071;28;20103;-67
2023/08/02 09:22:44;;;;;;;8.75;3.50;;;;;;;;;;5095817;28;20098;-67
2023/08/02 09:25:19;;;;;;;9.02;3.65;;;;;;;;;;5078894;28;20059;-67
2023/08/02 09:27:45;;;;;;;12.50;4.32;;;;;;;;;;5075006;28;20038;-67
2023/08/02 09:30:21;;;;;;;7.63;4.10;;;;;;;;;;5075360;28;20029;-67
2023/08/02 09:32:56;;;;;;;11.30;4.38;;;;;;;;;;5074785;28;20016;-64
2023/08/02 09:35:22;;;;;;;10.85;4.15;;;;;;;;;;5075450;28;20438;-67
2023/08/02 09:37:47;;;;;;;9.85;3.83;;;;;;;;;;5075350;28;20052;-67
2023/08/02 09:40:12;;;;;;;7.68;3.83;;;;;;;;;;5075015;28;20388;-67
2023/08/02 09:42:38;;;;;;;9.93;4.35;;;;;;;;;;5074266;28;20055;-67
2023/08/02 09:45:03;;;;;;;12.60;4.75;;;;;;;;;;5074044;28;20012;-67
2023/08/02 09:47:29;;;;;;;9.38;4.53;;;;;;;;;;5072409;28;20016;-67
2023/08/02 09:50:04;;;;;;;13.60;5.10;;;;;;;;;;5074737;28;20104;-67
2023/08/02 09:52:29;;;;;;;10.88;4.90;;;;;;;;;;5074778;28;20024;-67
2023/08/02 09:54:55;;;;;;;10.30;3.58;;;;;;;;;;5074770;28;20012;-67
2023/08/02 09:57:22;;;;;;;9.38;3.95;;;;;;;;;;5074711;28;20031;-66
2023/08/02 09:59:47;;;;;;;9.82;4.28;;;;;;;;;;5073811;28;20090;-67
2023/08/02 10:02:13;;;;;;;8.55;4.10;;;;;;;;;;5074576;28;20020;-66
2023/08/02 10:04:39;;;;;;;9.07;4.07;;;;;;;;;;5074240;28;20072;-67
2023/08/02 10:07:08;;;;;;;8.15;3.50;;;;;;;;;;5074011;28;20025;-66
2023/08/02 10:09:34;;;;;;;9.75;3.63;;;;;;;;;;5074609;28;20021;-66
2023/08/02 10:12:07;;;;;;;8.82;3.70;;;;;;;;;;5074573;28;20388;-67
2023/08/02 10:14:33;;;;;;;6.35;3.40;;;;;;;;;;5055826;28;20465;-67
2023/08/02 10:17:01;;;;;;;6.00;2.88;;;;;;;;;;5070508;28;20024;-67
2023/08/02 10:19:28;;;;;;;6.90;3.08;;;;;;;;;;5084692;28;20027;-66
2023/08/02 10:21:53;;;;;;;8.25;3.97;;;;;;;;;;5094522;28;20023;-67
2023/08/02 10:24:19;;;;;;;8.45;4.10;;;;;;;;;;5088526;28;20025;-66
2023/08/02 10:26:45;;;;;;;8.00;3.35;;;;;;;;;;5073805;28;20031;-66
2023/08/02 10:29:10;;;;;;;8.65;4.00;;;;;;;;;;5074214;28;20553;-65
2023/08/02 10:31:36;;;;;;;11.02;4.07;;;;;;;;;;5074248;28;20020;-65
2023/08/02 10:34:02;;;;;;;6.85;3.72;;;;;;;;;;5073261;28;20457;-64
2023/08/02 10:36:30;;;;;;;6.32;3.22;;;;;;;;;;5073991;28;20028;-65
2023/08/02 10:38:56;;;;;;;6.30;3.22;;;;;;;;;;5074160;28;20460;-65
2023/08/02 10:41:21;;;;;;;7.20;3.55;;;;;;;;;;5073802;28;20108;-65
2023/08/02 10:44:01;;;;;;;11.57;4.90;;;;;;;;;;5073780;28;20105;-65
2023/08/02 10:46:27;;;;;;;7.97;3.65;;;;;;;;;;5073412;28;20056;-65
2023/08/02 10:48:53;;;;;;;7.00;4.28;;;;;;;;;;5073626;28;20388;-65
2023/08/02 10:51:30;;;;;;;7.38;3.97;;;;;;;;;;5073161;28;20028;-64
2023/08/02 10:54:13;;;;;;;8.90;4.70;;;;;;;;;;5073870;28;20036;-65
2023/08/02 10:56:51;;;;;;;8.63;4.25;;;;;;;;;;5073787;28;20024;-65
2023/08/02 10:59:16;;;;;;;6.28;3.00;;;;;;;;;;5073512;28;20095;-65
2023/08/02 11:01:54;;;;;;;6.60;2.40;;;;;;;;;;5073600;28;20055;-64
2023/08/02 11:04:19;;;;;;;6.75;3.63;;;;;;;;;;5073461;28;20508;-64
2023/08/02 11:06:44;;;;;;;8.70;4.03;;;;;;;;;;5073032;28;20086;-64
2023/08/02 11:09:09;;;;;;;7.07;3.58;;;;;;;;;;5073183;28;20096;-62
2023/08/02 11:11:36;;;;;;;9.80;3.40;;;;;;;;;;5073265;28;20032;-65
2023/08/02 11:14:02;;;;;;;5.78;3.35;;;;;;;;;;5089302;28;20032;-64
2023/08/02 11:16:28;;;;;;;5.30;2.95;;;;;;;;;;5093498;28;20523;-65
2023/08/02 11:18:53;;;;;;;6.60;3.30;;;;;;;;;;5092628;28;20016;-65
2023/08/02 11:21:18;;;;;;;8.35;3.28;;;;;;;;;;5077871;28;20027;-64
2023/08/02 11:23:49;;;;;;;6.38;2.95;;;;;;;;;;5072504;28;20028;-64
2023/08/02 11:26:15;;;;;;;5.68;2.83;;;;;;;;;;5072746;28;20376;-65
2023/08/02 11:28:44;;;;;;;4.65;2.40;;;;;;;;;;5071674;28;20499;-64
2023/08/02 11:31:13;;;;;;;7.03;3.42;;;;;;;;;;5069748;28;20051;-65
2023/08/02 11:33:39;;;;;;;3.50;1.88;;;;;;;;;;5070289;28;20020;-64
2023/08/02 11:36:04;;;;;;;7.00;2.92;;;;;;;;;;5073392;28;20468;-64
2023/08/02 11:38:30;;;;;;;6.30;3.03;;;;;;;;;;5073020;28;20084;-64
2023/08/02 11:40:56;;;;;;;5.55;2.92;;;;;;;;;;5068346;28;20103;-67
2023/08/02 11:43:37;;;;;;;8.10;3.42;;;;;;;;;;5053054;28;20433;-67
2023/08/02 11:46:32;;;;;;;6.97;3.53;;;;;;;;;;5064751;28;20469;-67
2023/08/02 11:49:07;;;;;;;5.30;2.75;;;;;;;;;;4991419;28;20113;-66
2023/08/02 11:51:32;;;;;;;4.32;2.72;;;;;;;;;;4991550;28;20023;-68
2023/08/02 11:53:59;;;;;;;6.63;2.60;;;;;;;;;;4992452;28;20085;-66
2023/08/02 11:56:25;;;;;;;6.88;3.35;;;;;;;;;;4991434;28;20019;-66
2023/08/02 11:58:50;;;;;;;5.53;2.80;;;;;;;;;;4990913;28;20054;-66
2023/08/02 12:01:16;;;;;;;6.30;3.40;;;;;;;;;;4991537;28;20655;-66
2023/08/02 12:03:58;;;;;;;6.00;3.40;;;;;;;;;;4991241;28;20049;-66
2023/08/02 12:06:24;;;;;;;7.72;3.88;;;;;;;;;;4991210;28;20498;-67
2023/08/02 12:08:53;;;;;;;5.28;3.00;;;;;;;;;;4991353;28;20112;-66
2023/08/02 12:11:19;;;;;;;9.02;3.53;;;;;;;;;;4991106;28;20023;-67
2023/08/02 12:13:44;;;;;;;6.70;3.40;;;;;;;;;;4991323;28;20125;-66
2023/08/02 12:16:11;;;;;;;4.68;2.92;;;;;;;;;;4991157;28;20026;-66
2023/08/02 12:18:50;;;;;;;5.53;2.88;;;;;;;;;;4991317;28;20045;-66
2023/08/02 12:21:15;;;;;;;5.07;3.10;;;;;;;;;;4990867;28;20022;-66
2023/08/02 12:23:40;;;;;;;7.57;1.77;;;;;;;;;;4991298;28;20089;-66
2023/08/02 12:26:05;;;;;;;5.03;2.70;;;;;;;;;;5041229;28;20051;-66
2023/08/02 12:28:44;;;;;;;4.43;2.30;;;;;;;;;;5068483;28;20023;-67
2023/08/02 12:31:09;;;;;;;3.85;2.20;;;;;;;;;;5092662;28;20044;-67
2023/08/02 12:33:34;;;;;;;3.97;2.28;;;;;;;;;;5076278;28;20013;-67
2023/08/02 12:35:59;;;;;;;4.55;2.40;;;;;;;;;;5076589;28;20031;-67
2023/08/02 12:38:29;;;;;;;5.05;2.60;;;;;;;;;;5076573;28;20032;-67
2023/08/02 12:40:58;;;;;;;4.10;2.53;;;;;;;;;;5076412;28;20024;-67
2023/08/02 12:43:23;;;;;;;4.47;2.50;;;;;;;;;;5076499;28;20031;-67
2023/08/02 12:45:49;;;;;;;4.82;2.47;;;;;;;;;;5076341;28;20391;-67
2023/08/02 12:48:14;;;;;;;4.35;2.35;;;;;;;;;;5075269;28;20032;-66
2023/08/02 12:50:39;;;;;;;4.18;2.58;;;;;;;;;;5076279;28;20099;-64
2023/08/02 12:53:04;;;;;;;6.35;1.83;;;;;;;;;;5076149;28;20143;-63
2023/08/02 12:55:30;;;;;;;3.30;1.88;;;;;;;;;;5076217;28;20350;-64
2023/08/02 12:57:55;;;;;;;4.40;2.10;;;;;;;;;;5074530;28;20377;-63
2023/08/02 13:00:20;;;;;;;3.92;2.30;;;;;;;;;;5079989;28;20029;-62
2023/08/02 13:02:46;;;;;;;3.92;2.10;;;;;;;;;;5076065;28;20046;-64
2023/08/02 13:05:11;;;;;;;3.63;1.80;;;;;;;;;;5089813;28;20446;-64
2023/08/02 13:07:36;;;;;;;3.15;1.50;;;;;;;;;;5071448;28;20059;-65
2023/08/02 13:10:01;;;;;;;2.88;1.40;;;;;;;;;;5056173;28;20029;-65
2023/08/02 13:12:27;;;;;;;2.35;1.27;;;;;;;;;;5065663;28;20024;-65
2023/08/02 13:14:52;;;;;;;2.70;1.42;;;;;;;;;;5074599;28;20048;-65
2023/08/02 13:17:19;;;;;;;2.25;1.20;;;;;;;;;;5075579;28;20028;-66
2023/08/02 13:19:45;;;;;;;4.15;1.48;;;;;;;;;;5075456;28;20020;-64
2023/08/02 13:22:10;;;;;;;2.80;1.20;;;;;;;;;;5074869;28;20040;-64
2023/08/02 13:24:35;;;;;;;2.67;1.23;;;;;;;;;;5075350;28;20040;-65
2023/08/02 13:27:01;;;;;;;2.88;1.30;;;;;;;;;;5073577;28;20150;-64
2023/08/02 13:29:26;;;;;;;3.47;1.48;;;;;;;;;;5065083;28;20029;-65
2023/08/02 13:31:52;;;;;;;2.95;1.27;;;;;;;;;;5065200;28;20023;-64
2023/08/02 13:34:17;;;;;;;2.33;1.13;;;;;;;;;;5073792;28;20024;-65
2023/08/02 13:36:42;;;;;;;3.42;1.20;;;;;;;;;;5075126;28;20020;-65
2023/08/02 13:39:07;;;;;;;1.80;1.00;;;;;;;;;;5065348;28;20445;-64
2023/08/02 13:41:33;;;;;;;3.70;1.48;;;;;;;;;;5070291;28;20024;-63
2023/08/02 13:43:58;;;;;;;3.13;1.30;;;;;;;;;;5075075;28;20026;-64
2023/08/02 13:46:23;;;;;;;4.18;1.70;;;;;;;;;;5073820;28;20100;-65
2023/08/02 13:48:48;;;;;;;3.35;1.20;;;;;;;;;;5074734;28;20037;-64
2023/08/02 13:51:14;;;;;;;2.95;1.33;;;;;;;;;;5074793;28;20028;-64
2023/08/02 13:53:39;;;;;;;2.80;1.42;;;;;;;;;;5088685;28;20084;-64
2023/08/02 13:56:04;;;;;;;3.60;1.70;;;;;;;;;;5093052;28;20048;-64
2023/08/02 13:58:30;;;;;;;2.90;1.40;;;;;;;;;;5074778;28;20029;-64
2023/08/02 14:00:56;;;;;;;2.72;1.48;;;;;;;;;;5074657;28;20028;-67
2023/08/02 14:03:21;;;;;;;4.03;1.60;;;;;;;;;;5074437;28;20361;-67
2023/08/02 14:05:46;;;;;;;3.85;1.88;;;;;;;;;;5087762;28;20475;-66
2023/08/02 14:08:11;;;;;;;3.95;1.73;;;;;;;;;;5094842;28;20383;-66
2023/08/02 14:10:37;;;;;;;4.07;1.60;;;;;;;;;;5094869;28;20156;-66
2023/08/02 14:13:02;;;;;;;4.75;1.70;;;;;;;;;;5092782;28;20127;-66
2023/08/02 14:15:27;;;;;;;5.45;1.67;;;;;;;;;;5074373;28;20017;-67
2023/08/02 14:17:53;;;;;;;3.50;1.80;;;;;;;;;;5074652;28;20017;-67
2023/08/02 14:20:18;;;;;;;4.60;1.60;;;;;;;;;;5074201;28;20029;-67
2023/08/02 14:22:43;;;;;;;3.58;1.77;;;;;;;;;;5071204;28;20012;-67
2023/08/02 14:25:10;;;;;;;3.00;1.70;;;;;;;;;;5056311;28;20024;-67
2023/08/02 14:27:35;;;;;;;4.07;1.83;;;;;;;;;;5074556;28;20023;-67
2023/08/02 14:30:01;;;;;;;4.72;2.08;;;;;;;;;;5073659;28;20527;-67
2023/08/02 14:32:26;;;;;;;5.82;2.58;;;;;;;;;;5079230;28;20024;-67
2023/08/02 14:34:51;;;;;;;6.30;2.95;;;;;;;;;;5094529;28;20024;-67